Lahore Weather



Lahore's Current Weather

Temprature 12.4o mist

mist

Rain: 0 %

Min Temprature12o
Max Temprature13o
Humidity87
Wind Speed2.1 m/h
Sun Rise06:58:43
Sun Set17:31:27
Current Time: 27-Jan-2020 18:27:51
Lat/Lon: 31.55, 74.34




Lahore's Geo Location



Lahore's Weather Forecast

Time Overall Temp Min Temp Max Temp Humidity Wind Speed Rain
27-Jan-2020 (Mon)
20:00:00 light rain 11.240 11.240 12.980 83 3.72 m/h 44 %
23:00:00 light rain 10.250 10.250 11.550 88 4.68 m/h 62 %
28-Jan-2020 (Tue)
02:00:00 light rain 10.090 10.090 10.960 92 1.81 m/h 138 %
05:00:00 light rain 10.160 10.160 10.590 94 2.22 m/h 150 %
08:00:00 light rain 10.850 10.850 10.850 93 2.56 m/h 75 %
11:00:00 moderate rain 11.970 11.970 11.970 97 1.7 m/h 506 %
14:00:00 moderate rain 12.610 12.610 12.610 95 1.16 m/h 769 %
17:00:00 moderate rain 12.120 12.120 12.120 96 3.44 m/h 1,019 %
20:00:00 moderate rain 10.820 10.820 10.820 95 2.33 m/h 1,106 %
23:00:00 moderate rain 11.030 11.030 11.030 93 4.18 m/h 463 %
29-Jan-2020 (Wed)
02:00:00 light rain 9.150 9.150 9.150 95 0.82 m/h 31 %
05:00:00 light rain 10.580 10.580 10.580 95 1.73 m/h 181 %
08:00:00 light rain 10.610 10.610 10.610 96 1.66 m/h 125 %
11:00:00 light rain 15.210 15.210 15.210 78 0.6 m/h 63 %
14:00:00 light rain 16.520 16.520 16.520 69 0.85 m/h 213 %
17:00:00 light rain 14.350 14.350 14.350 78 0.69 m/h 56 %
20:00:00 light rain 11.060 11.060 11.060 88 1.72 m/h 38 %
23:00:00 clear sky 9.870 9.870 9.870 90 1.25 m/h 0 %
30-Jan-2020 (Thu)
02:00:00 clear sky 9.040 9.040 9.040 92 1.54 m/h 0 %
05:00:00 clear sky 8.040 8.040 8.040 93 1.49 m/h 0 %
08:00:00 clear sky 9.270 9.270 9.270 91 1.51 m/h 0 %
11:00:00 clear sky 14.640 14.640 14.640 70 1.81 m/h 0 %
14:00:00 few clouds 17.520 17.520 17.520 58 1.22 m/h 0 %
17:00:00 clear sky 14.800 14.800 14.800 68 0.13 m/h 0 %
20:00:00 clear sky 10.800 10.800 10.800 79 0.59 m/h 0 %
23:00:00 clear sky 9.650 9.650 9.650 81 0.41 m/h 0 %
31-Jan-2020 (Fri)
02:00:00 clear sky 8.820 8.820 8.820 84 0.77 m/h 0 %
05:00:00 clear sky 8.000 8.000 8.000 86 0.92 m/h 0 %
08:00:00 clear sky 9.790 9.790 9.790 84 0.45 m/h 0 %
11:00:00 clear sky 16.310 16.310 16.310 60 0.93 m/h 0 %
14:00:00 scattered clouds 17.820 17.820 17.820 47 1.64 m/h 0 %
17:00:00 broken clouds 15.270 15.270 15.270 58 0.81 m/h 0 %
20:00:00 light rain 11.240 11.240 11.240 66 0.85 m/h 6 %
23:00:00 broken clouds 9.760 9.760 9.760 73 0.16 m/h 0 %
01-Feb-2020 (Sat)
02:00:00 clear sky 8.810 8.810 8.810 77 0.61 m/h 0 %
05:00:00 clear sky 7.850 7.850 7.850 79 0.52 m/h 0 %
08:00:00 clear sky 9.740 9.740 9.740 76 0.62 m/h 0 %
11:00:00 clear sky 16.660 16.660 16.660 53 0.6 m/h 0 %
14:00:00 clear sky 18.490 18.490 18.490 41 2.17 m/h 0 %
17:00:00 clear sky 15.210 15.210 15.210 55 1.54 m/h 0 %


Lahore's Tourist Spots

Historical Places in Lahore

Famous Cities (61)